< < Back
Terminal Aerodrome Forecast


Current Version              Previous Versions:   1  2  3  4  5  6  7  8  9  

Terminal Aerodrome Forecast

164
FTUS44 KOHX 170900 AAB
TAFCSV
TAF AMD
KCSV 170937Z 1710/1806 00000KT 1/2SM FG BKN002
      TEMPO 1710/1713 1/4SM FG VV001
     FM171400 02003KT 3SM BR SKC
     FM171500 03003KT P6SM SKC=



Latest METAR

862
SAUS70 KWBC 172300 RRP
MTRCSV
METAR KCSV 172253Z AUTO 29005KT 10SM CLR 19/12 A3001 RMK AO2 SLP151
T01940122


USA.gov is the U.S. government's official web portal to all federal, state and local government web resources and services.